Time;durP1;ratioP1;P1;durP2;ratioP2;P2;SDS_P1;SDS_P2;PMS_P1;PMS_P2;Temp;Humidity;BMP_temperature;BMP_pressure;BME280_temperature;BME280_humidity;BME280_pressure;Samples;Min_cycle;Max_cycle;Signal;HPM_P1;HPM_P2
2023/01/23 00:00:12;;;;;;;;;;;179.80;2252.80;;;;;;5016210;28;19905;-84
2023/01/23 00:02:38;;;;;;;;;;;179.80;2252.80;;;;;;5013405;28;19905;-85
2023/01/23 00:05:04;;;;;;;;;;;179.80;2252.80;;;;;;5015908;28;19905;-85
2023/01/23 00:07:29;;;;;;;;;;;179.90;2252.80;;;;;;5023748;28;19913;-85
2023/01/23 00:09:55;;;;;;;;;;;179.90;2252.80;;;;;;5022541;28;19905;-85
2023/01/23 00:12:20;;;;;;;;;;;179.80;2252.80;;;;;;5026282;28;19968;-85
2023/01/23 00:14:46;;;;;;;;;;;179.90;2252.80;;;;;;5019769;28;19916;-86
2023/01/23 00:17:12;;;;;;;;;;;179.90;2252.80;;;;;;5019330;28;19912;-84
2023/01/23 00:19:37;;;;;;;;;;;179.90;2252.80;;;;;;5019471;28;19924;-86
2023/01/23 00:22:03;;;;;;;;;;;179.90;2252.80;;;;;;5019674;28;19932;-86
2023/01/23 00:24:28;;;;;;;;;;;179.90;2201.60;;;;;;5021110;28;20425;-84
2023/01/23 00:26:54;;;;;;;;;;;179.90;2201.60;;;;;;5022117;28;19905;-84
2023/01/23 00:29:19;;;;;;;;;;;179.90;2022.40;;;;;;5020255;28;19912;-86
2023/01/23 00:31:45;;;;;;;;;;;180.00;1920.00;;;;;;5019360;28;19905;-84
2023/01/23 00:34:11;;;;;;;;;;;179.90;2252.80;;;;;;5021872;28;19944;-86
2023/01/23 00:36:38;;;;;;;;;;;179.90;2252.80;;;;;;5019229;28;19913;-85
2023/01/23 00:39:06;;;;;;;;;;;179.90;2252.80;;;;;;5038606;28;19909;-81
2023/01/23 00:41:31;;;;;;;;;;;179.90;2252.80;;;;;;5020485;28;19909;-82
2023/01/23 00:43:57;;;;;;;;;;;179.80;2252.80;;;;;;5019057;28;19912;-85
2023/01/23 00:46:23;;;;;;;;;;;179.80;1868.80;;;;;;5019591;28;19904;-81
2023/01/23 00:48:49;;;;;;;;;;;179.90;2252.80;;;;;;5021533;28;19952;-84
2023/01/23 00:51:15;;;;;;;;;;;180.00;2252.80;;;;;;5018697;28;19922;-86
2023/01/23 00:53:41;;;;;;;;;;;179.80;2252.80;;;;;;5022888;28;19917;-83
2023/01/23 00:56:06;;;;;;;;;;;179.80;2252.80;;;;;;5029021;28;19912;-82
2023/01/23 00:58:32;;;;;;;;;;;179.80;2252.80;;;;;;5028408;28;19939;-81
2023/01/23 01:00:58;;;;;;;;;;;179.80;2252.80;;;;;;5021804;28;19905;-82
2023/01/23 01:03:26;;;;;;;;;;;179.80;2252.80;;;;;;5019443;28;19913;-83
2023/01/23 01:05:52;;;;;;;;;;;179.70;2252.80;;;;;;5019500;28;19913;-79
2023/01/23 01:08:17;;;;;;;;;;;179.80;2252.80;;;;;;5020509;28;20256;-84
2023/01/23 01:10:43;;;;;;;;;;;179.80;2252.80;;;;;;5020864;28;20323;-83
2023/01/23 01:13:09;;;;;;;;;;;179.80;2252.80;;;;;;5020970;28;19909;-83
2023/01/23 01:15:35;;;;;;;;;;;179.80;2252.80;;;;;;5020721;28;19912;-84
2023/01/23 01:18:01;;;;;;;;;;;179.80;2252.80;;;;;;5020438;28;19904;-84
2023/01/23 01:20:27;;;;;;;;;;;179.90;2252.80;;;;;;5020262;28;19953;-84
2023/01/23 01:22:53;;;;;;;;;;;179.80;2252.80;;;;;;5020383;28;19917;-85
2023/01/23 01:25:19;;;;;;;;;;;179.80;2252.80;;;;;;5011905;28;19968;-86
2023/01/23 01:27:45;;;;;;;;;;;179.80;2252.80;;;;;;5018794;28;20363;-85
2023/01/23 01:30:11;;;;;;;;;;;179.90;2252.80;;;;;;5020110;28;19905;-85
2023/01/23 01:32:41;;;;;;;;;;;179.80;2252.80;;;;;;5018636;28;20371;-84
2023/01/23 01:35:08;;;;;;;;;;;179.80;2252.80;;;;;;5018403;28;19905;-85
2023/01/23 01:37:34;;;;;;;;;;;179.80;2252.80;;;;;;5018663;28;19905;-84
2023/01/23 01:40:00;;;;;;;;;;;179.70;2252.80;;;;;;5018895;28;19988;-85
2023/01/23 01:42:27;;;;;;;;;;;179.70;2252.80;;;;;;5021858;28;19905;-85
2023/01/23 01:44:57;;;;;;;;;;;179.70;2252.80;;;;;;5009171;28;19912;-85
2023/01/23 01:47:22;;;;;;;;;;;179.70;2252.80;;;;;;5029068;28;19909;-84
2023/01/23 01:49:49;;;;;;;;;;;179.70;2252.80;;;;;;5018946;28;20347;-85
2023/01/23 01:52:16;;;;;;;;;;;179.70;2252.80;;;;;;5016046;28;19992;-85
2023/01/23 01:54:45;;;;;;;;;;;179.70;2252.80;;;;;;5020546;28;20366;-83
2023/01/23 01:57:25;;;;;;;;;;;179.70;2252.80;;;;;;5018347;28;19905;-85
2023/01/23 01:59:53;;;;;;;;;;;179.80;2252.80;;;;;;5021730;28;19923;-85
2023/01/23 02:02:28;;;;;;;;;;;179.70;2252.80;;;;;;5019229;28;19905;-85
2023/01/23 02:04:57;;;;;;;;;;;179.80;2252.80;;;;;;5018103;28;19905;-84
2023/01/23 02:07:25;;;;;;;;;;;179.80;2252.80;;;;;;5008038;28;19921;-85
2023/01/23 02:09:51;;;;;;;;;;;179.80;2252.80;;;;;;5019336;28;19912;-85
2023/01/23 02:12:17;;;;;;;;;;;179.70;2252.80;;;;;;5021094;28;19904;-84
2023/01/23 02:14:42;;;;;;;;;;;179.70;2252.80;;;;;;5016170;28;19967;-84
2023/01/23 02:17:09;;;;;;;;;;;179.60;2252.80;;;;;;5021196;28;19955;-83
2023/01/23 02:19:46;;;;;;;;;;;179.60;2252.80;;;;;;5017560;28;19999;-84
2023/01/23 02:22:22;;;;;;;;;;;179.50;2252.80;;;;;;5019457;28;19917;-84
2023/01/23 02:24:57;;;;;;;;;;;179.50;2252.80;;;;;;5005148;28;20330;-85
2023/01/23 02:27:23;;;;;;;;;;;179.60;2252.80;;;;;;5020154;28;19912;-84
2023/01/23 02:29:50;;;;;;;;;;;179.70;2252.80;;;;;;5023468;28;20074;-85
2023/01/23 02:32:18;;;;;;;;;;;179.70;2252.80;;;;;;5023665;28;20351;-84
2023/01/23 02:34:44;;;;;;;;;;;179.70;2252.80;;;;;;5020441;28;19905;-84
2023/01/23 02:37:10;;;;;;;;;;;179.30;2252.80;;;;;;5016856;28;19955;-84
2023/01/23 02:39:36;;;;;;;;;;;179.50;2252.80;;;;;;5020715;28;20000;-84
2023/01/23 02:42:02;;;;;;;;;;;179.60;2252.80;;;;;;5018061;28;19915;-84
2023/01/23 02:44:30;;;;;;;;;;;179.60;2252.80;;;;;;5016968;28;19905;-85
2023/01/23 02:47:01;;;;;;;;;;;179.70;2252.80;;;;;;5009366;28;19913;-85
2023/01/23 02:49:27;;;;;;;;;;;179.70;2252.80;;;;;;5024825;28;20004;-86
2023/01/23 02:51:54;;;;;;;;;;;179.70;2252.80;;;;;;5011961;28;19968;-84
2023/01/23 02:54:20;;;;;;;;;;;179.70;2252.80;;;;;;5016319;28;19912;-81
2023/01/23 02:56:46;;;;;;;;;;;179.70;2252.80;;;;;;5016234;28;19956;-81
2023/01/23 03:01:56;;;;;;;;;;;179.60;2252.80;;;;;;5034313;28;19928;-80
2023/01/23 03:04:22;;;;;;;;;;;179.60;2252.80;;;;;;5016309;28;19909;-82
2023/01/23 03:06:48;;;;;;;;;;;179.60;2252.80;;;;;;5016290;28;20351;-81
2023/01/23 03:09:14;;;;;;;;;;;179.50;2252.80;;;;;;5016102;28;19913;-83
2023/01/23 03:11:41;;;;;;;;;;;179.50;2252.80;;;;;;5016183;28;20351;-81
2023/01/23 03:14:08;;;;;;;;;;;179.50;2252.80;;;;;;5016142;28;20359;-81
2023/01/23 03:16:34;;;;;;;;;;;179.50;2252.80;;;;;;5033739;28;19911;-81
2023/01/23 03:19:04;;;;;;;;;;;179.50;2252.80;;;;;;5015956;28;19905;-80
2023/01/23 03:21:30;;;;;;;;;;;179.50;2252.80;;;;;;5015958;28;20393;-81
2023/01/23 03:23:56;;;;;;;;;;;179.50;2252.80;;;;;;5016049;28;20000;-83
2023/01/23 03:26:22;;;;;;;;;;;179.50;2252.80;;;;;;5016141;28;19948;-82
2023/01/23 03:31:32;;;;;;;;;;;179.40;2252.80;;;;;;5033822;28;19963;-82
2023/01/23 03:33:57;;;;;;;;;;;179.30;2252.80;;;;;;5016001;28;19905;-80
2023/01/23 03:36:23;;;;;;;;;;;179.20;2252.80;;;;;;5016038;28;19912;-80
2023/01/23 03:41:33;;;;;;;;;;;154.50;2252.80;;;;;;5033637;28;19912;-80
2023/01/23 03:43:58;;;;;;;;;;;154.50;2252.80;;;;;;5015904;28;19988;-80
2023/01/23 03:46:24;;;;;;;;;;;154.40;2252.80;;;;;;5017639;28;19932;-80
2023/01/23 03:48:49;;;;;;;;;;;154.40;2252.80;;;;;;5019568;28;19920;-80
2023/01/23 03:51:15;;;;;;;;;;;154.40;2252.80;;;;;;5019444;28;19913;-85
2023/01/23 03:53:41;;;;;;;;;;;154.40;2252.80;;;;;;5019693;28;19995;-81
2023/01/23 03:56:06;;;;;;;;;;;154.50;2252.80;;;;;;5019691;28;19905;-85
2023/01/23 03:58:32;;;;;;;;;;;154.50;2252.80;;;;;;5008036;28;19921;-84
2023/01/23 04:00:57;;;;;;;;;;;154.50;2252.80;;;;;;4999558;28;20015;-83
2023/01/23 04:03:23;;;;;;;;;;;179.20;2252.80;;;;;;5000042;28;19905;-81
2023/01/23 04:05:53;;;;;;;;;;;154.50;2252.80;;;;;;5000135;28;20360;-83
2023/01/23 04:08:19;;;;;;;;;;;154.40;2252.80;;;;;;4999909;28;19960;-85
2023/01/23 04:10:44;;;;;;;;;;;154.50;2252.80;;;;;;4999762;28;19906;-79
2023/01/23 04:13:10;;;;;;;;;;;154.50;2252.80;;;;;;5002293;28;19953;-80
2023/01/23 04:15:35;;;;;;;;;;;154.50;2252.80;;;;;;5018178;28;19936;-80
2023/01/23 04:18:01;;;;;;;;;;;154.50;2252.80;;;;;;5016331;28;19913;-80
2023/01/23 04:20:26;;;;;;;;;;;154.50;2252.80;;;;;;5000054;28;20287;-81
2023/01/23 04:22:52;;;;;;;;;;;154.50;2252.80;;;;;;4999043;28;20055;-81
2023/01/23 04:25:18;;;;;;;;;;;154.40;2252.80;;;;;;4999135;28;19912;-81
2023/01/23 04:27:43;;;;;;;;;;;154.50;2252.80;;;;;;4999441;28;20382;-81
2023/01/23 04:30:09;;;;;;;;;;;154.50;2252.80;;;;;;4999472;28;20356;-85
2023/01/23 04:32:35;;;;;;;;;;;154.50;2252.80;;;;;;4999256;28;19913;-82
2023/01/23 04:35:00;;;;;;;;;;;179.20;2252.80;;;;;;4999290;28;19949;-84
2023/01/23 04:37:26;;;;;;;;;;;154.50;2252.80;;;;;;4999146;28;20004;-84
2023/01/23 04:39:51;;;;;;;;;;;179.20;2252.80;;;;;;4999361;28;19909;-82
2023/01/23 04:42:17;;;;;;;;;;;179.20;2252.80;;;;;;4999038;28;19955;-84
2023/01/23 04:44:42;;;;;;;;;;;179.30;2252.80;;;;;;4999054;28;19960;-79
2023/01/23 04:47:08;;;;;;;;;;;179.30;2252.80;;;;;;4998644;28;19905;-85
2023/01/23 04:49:33;;;;;;;;;;;154.50;2252.80;;;;;;5016117;28;19909;-81
2023/01/23 04:51:59;;;;;;;;;;;154.50;2252.80;;;;;;4998431;28;19910;-85
2023/01/23 04:54:25;;;;;;;;;;;154.40;2252.80;;;;;;4998878;28;19960;-80
2023/01/23 04:56:50;;;;;;;;;;;154.30;2252.80;;;;;;4998175;28;20374;-84
2023/01/23 04:59:16;;;;;;;;;;;154.30;2252.80;;;;;;4997685;28;20589;-80
2023/01/23 05:01:42;;;;;;;;;;;154.30;2252.80;;;;;;5015964;28;20373;-80
2023/01/23 05:04:07;;;;;;;;;;;154.10;2252.80;;;;;;4998122;28;19905;-84
2023/01/23 05:06:33;;;;;;;;;;;154.30;2252.80;;;;;;4998450;28;19912;-80
2023/01/23 05:08:58;;;;;;;;;;;154.40;2252.80;;;;;;4998175;28;19913;-80
2023/01/23 05:11:24;;;;;;;;;;;154.30;2252.80;;;;;;4997729;28;20346;-81
2023/01/23 05:13:49;;;;;;;;;;;154.50;2252.80;;;;;;4996915;28;19905;-84
2023/01/23 05:16:15;;;;;;;;;;;154.40;2252.80;;;;;;4998070;28;19932;-80
2023/01/23 05:18:41;;;;;;;;;;;154.10;2252.80;;;;;;5015887;28;19913;-80
2023/01/23 05:21:06;;;;;;;;;;;154.10;2252.80;;;;;;4998187;28;20004;-85
2023/01/23 05:23:32;;;;;;;;;;;154.10;2252.80;;;;;;4998424;28;20386;-80
2023/01/23 05:25:58;;;;;;;;;;;154.10;2252.80;;;;;;4998124;28;19911;-80
2023/01/23 05:28:23;;;;;;;;;;;154.30;2252.80;;;;;;4997736;28;20000;-80
2023/01/23 05:30:49;;;;;;;;;;;154.30;2252.80;;;;;;4997709;28;20363;-84
2023/01/23 05:33:14;;;;;;;;;;;154.40;2252.80;;;;;;4997361;28;19905;-80
2023/01/23 05:35:40;;;;;;;;;;;179.20;2252.80;;;;;;4997604;28;20359;-80
2023/01/23 05:38:06;;;;;;;;;;;179.30;2252.80;;;;;;4997665;28;19905;-85
2023/01/23 05:40:31;;;;;;;;;;;179.30;2252.80;;;;;;4998053;28;19917;-80
2023/01/23 05:42:57;;;;;;;;;;;179.40;2252.80;;;;;;4998084;28;19912;-80
2023/01/23 05:45:22;;;;;;;;;;;179.30;2252.80;;;;;;4997019;28;19909;-80
2023/01/23 05:47:48;;;;;;;;;;;179.20;2252.80;;;;;;5015322;28;20318;-80
2023/01/23 05:50:16;;;;;;;;;;;179.20;2252.80;;;;;;4997818;28;19947;-85
2023/01/23 05:52:42;;;;;;;;;;;179.30;2252.80;;;;;;4997881;28;19912;-80
2023/01/23 05:55:07;;;;;;;;;;;179.30;2252.80;;;;;;4997342;28;19909;-84
2023/01/23 05:57:33;;;;;;;;;;;179.30;2252.80;;;;;;4999264;28;19906;-80
2023/01/23 05:59:59;;;;;;;;;;;179.30;2252.80;;;;;;5017170;28;20319;-80
2023/01/23 06:02:25;;;;;;;;;;;179.20;2252.80;;;;;;5017204;28;19905;-80
2023/01/23 06:04:51;;;;;;;;;;;179.20;2252.80;;;;;;5017187;28;19905;-84
2023/01/23 06:07:17;;;;;;;;;;;179.20;2252.80;;;;;;5017205;28;19912;-80
2023/01/23 06:09:43;;;;;;;;;;;179.20;2252.80;;;;;;5016972;28;19915;-80
2023/01/23 06:12:09;;;;;;;;;;;179.30;2252.80;;;;;;5016960;28;19904;-85
2023/01/23 06:14:34;;;;;;;;;;;154.50;2252.80;;;;;;5017441;28;20051;-85
2023/01/23 06:17:00;;;;;;;;;;;179.20;2252.80;;;;;;5016779;28;19940;-80
2023/01/23 06:19:26;;;;;;;;;;;179.20;2252.80;;;;;;5017120;28;20374;-80
2023/01/23 06:21:51;;;;;;;;;;;179.30;2252.80;;;;;;5016468;28;19971;-81
2023/01/23 06:24:17;;;;;;;;;;;179.20;2252.80;;;;;;5016725;28;19905;-82
2023/01/23 06:26:43;;;;;;;;;;;179.30;2252.80;;;;;;5015685;28;19905;-85
2023/01/23 06:29:08;;;;;;;;;;;179.30;2252.80;;;;;;5016747;28;19912;-84
2023/01/23 06:31:34;;;;;;;;;;;179.40;2252.80;;;;;;5015501;28;19919;-84
2023/01/23 06:34:00;;;;;;;;;;;179.40;2252.80;;;;;;5016478;28;19959;-83
2023/01/23 06:36:25;;;;;;;;;;;179.40;2252.80;;;;;;5016048;28;20267;-83
2023/01/23 06:38:51;;;;;;;;;;;179.30;2252.80;;;;;;5016641;28;19944;-88
2023/01/23 06:41:17;;;;;;;;;;;179.40;2252.80;;;;;;5016585;28;19905;-85
2023/01/23 06:43:42;;;;;;;;;;;179.50;2252.80;;;;;;5018055;28;19913;-88
2023/01/23 06:46:08;;;;;;;;;;;179.50;2252.80;;;;;;5016106;28;19959;-86
2023/01/23 06:48:34;;;;;;;;;;;179.60;2252.80;;;;;;5015552;28;19952;-88
2023/01/23 06:51:00;;;;;;;;;;;179.50;2252.80;;;;;;5016467;28;19974;-87
2023/01/23 06:53:26;;;;;;;;;;;179.60;2252.80;;;;;;5017520;28;20405;-85
2023/01/23 06:55:51;;;;;;;;;;;179.60;2252.80;;;;;;5010750;28;19956;-85
2023/01/23 06:58:17;;;;;;;;;;;179.60;2252.80;;;;;;5019052;28;19960;-87
2023/01/23 07:00:43;;;;;;;;;;;179.70;2252.80;;;;;;5020757;28;19912;-83
2023/01/23 07:03:12;;;;;;;;;;;179.80;2252.80;;;;;;5025648;28;19921;-88
2023/01/23 07:05:39;;;;;;;;;;;179.90;2252.80;;;;;;5019019;28;20338;-81
2023/01/23 07:08:06;;;;;;;;;;;180.00;2252.80;;;;;;5018066;28;19916;-84
2023/01/23 07:10:31;;;;;;;;;;;180.10;2252.80;;;;;;5019681;28;19905;-86
2023/01/23 07:12:57;;;;;;;;;;;180.10;2252.80;;;;;;5017426;28;19909;-85
2023/01/23 07:15:22;;;;;;;;;;;204.90;2252.80;;;;;;5026030;28;19905;-86
2023/01/23 07:17:48;;;;;;;;;;;204.90;2252.80;;;;;;5034403;28;19893;-87
2023/01/23 07:20:14;;;;;;;;;;;204.90;2252.80;;;;;;5041297;28;19904;-81
2023/01/23 07:22:40;;;;;;;;;;;205.00;2252.80;;;;;;5036713;28;19956;-92
2023/01/23 07:25:06;;;;;;;;;;;205.00;2252.80;;;;;;5023432;28;20385;-81
2023/01/23 07:27:32;;;;;;;;;;;205.00;2252.80;;;;;;5039343;28;19916;-88
2023/01/23 07:29:57;;;;;;;;;;;205.10;2252.80;;;;;;5025649;28;19905;-88
2023/01/23 07:32:23;;;;;;;;;;;205.10;2252.80;;;;;;5046197;28;19909;-89
2023/01/23 07:34:48;;;;;;;;;;;205.20;2252.80;;;;;;5041575;28;19928;-88
2023/01/23 07:37:14;;;;;;;;;;;205.10;2252.80;;;;;;5023454;28;19905;-89
2023/01/23 07:39:40;;;;;;;;;;;205.20;2252.80;;;;;;5021076;28;19905;-83
2023/01/23 07:42:05;;;;;;;;;;;205.20;2252.80;;;;;;5026624;28;19905;-84
2023/01/23 07:44:31;;;;;;;;;;;205.30;2252.80;;;;;;5019646;28;19972;-82
2023/01/23 07:46:56;;;;;;;;;;;205.30;2252.80;;;;;;5018665;28;19905;-81
2023/01/23 07:49:22;;;;;;;;;;;205.30;2252.80;;;;;;5043147;28;19916;-82
2023/01/23 07:51:47;;;;;;;;;;;205.40;2252.80;;;;;;5011193;28;19928;-80
2023/01/23 07:54:13;;;;;;;;;;;205.50;2252.80;;;;;;5050469;28;19974;-87
2023/01/23 07:56:39;;;;;;;;;;;205.50;2252.80;;;;;;5045761;28;19905;-86
2023/01/23 07:59:04;;;;;;;;;;;205.60;2252.80;;;;;;5036606;28;19971;-81
2023/01/23 08:01:30;;;;;;;;;;;205.60;2252.80;;;;;;5019653;28;19938;-85
2023/01/23 08:03:55;;;;;;;;;;;205.60;2252.80;;;;;;5019141;28;19905;-88
2023/01/23 08:06:21;;;;;;;;;;;205.60;2252.80;;;;;;5036849;28;19916;-80
2023/01/23 08:08:48;;;;;;;;;;;205.70;2252.80;;;;;;5018319;28;19996;-82
2023/01/23 08:11:13;;;;;;;;;;;230.40;2252.80;;;;;;5037122;28;19905;-81
2023/01/23 08:13:39;;;;;;;;;;;230.40;2252.80;;;;;;5018159;28;19905;-80
2023/01/23 08:16:05;;;;;;;;;;;230.50;2252.80;;;;;;5018985;28;19912;-79
2023/01/23 08:18:31;;;;;;;;;;;230.60;2252.80;;;;;;5020494;28;19905;-80
2023/01/23 08:20:58;;;;;;;;;;;230.60;2252.80;;;;;;5018931;28;19916;-79
2023/01/23 08:23:25;;;;;;;;;;;230.60;2252.80;;;;;;5019401;28;19992;-80
2023/01/23 08:25:54;;;;;;;;;;;230.60;2252.80;;;;;;5018917;28;20369;-79
2023/01/23 08:28:20;;;;;;;;;;;230.70;2252.80;;;;;;5018739;28;20022;-80
2023/01/23 08:30:45;;;;;;;;;;;230.70;2252.80;;;;;;5018643;28;19905;-81
2023/01/23 08:33:11;;;;;;;;;;;230.70;2252.80;;;;;;5016669;28;19911;-79
2023/01/23 08:35:37;;;;;;;;;;;230.70;2252.80;;;;;;5019126;28;20015;-79
2023/01/23 08:38:03;;;;;;;;;;;230.80;2252.80;;;;;;5018640;28;19909;-79
2023/01/23 08:40:29;;;;;;;;;;;230.80;2252.80;;;;;;5018190;28;19905;-78
2023/01/23 08:42:54;;;;;;;;;;;230.80;2252.80;;;;;;5018477;28;20358;-78
2023/01/23 08:45:21;;;;;;;;;;;230.90;2252.80;;;;;;5018268;28;19912;-79
2023/01/23 08:47:47;;;;;;;;;;;231.00;2252.80;;;;;;5035788;28;20048;-78
2023/01/23 08:50:13;;;;;;;;;;;231.00;2252.80;;;;;;5008401;28;20374;-86
2023/01/23 08:52:38;;;;;;;;;;;230.90;2252.80;;;;;;5018337;28;19909;-80
2023/01/23 08:55:04;;;;;;;;;;;231.10;2252.80;;;;;;5011290;28;19943;-82
2023/01/23 08:57:30;;;;;;;;;;;231.10;2252.80;;;;;;5018346;28;19905;-81
2023/01/23 08:59:55;;;;;;;;;;;231.10;2252.80;;;;;;5038243;28;19939;-83
2023/01/23 09:02:21;;;;;;;;;;;231.10;2252.80;;;;;;5020219;28;19916;-83
2023/01/23 09:04:47;;;;;;;;;;;231.20;2252.80;;;;;;5018456;28;19955;-87
2023/01/23 09:07:12;;;;;;;;;;;231.20;2252.80;;;;;;5018153;28;20688;-86
2023/01/23 09:09:38;;;;;;;;;;;231.20;2252.80;;;;;;5018556;28;20270;-84
2023/01/23 09:12:04;;;;;;;;;;;231.30;2252.80;;;;;;5017964;28;19912;-92
2023/01/23 09:14:30;;;;;;;;;;;231.30;2252.80;;;;;;5018895;28;19952;-82
2023/01/23 09:16:55;;;;;;;;;;;256.00;2252.80;;;;;;5015210;28;19905;-84
2023/01/23 09:19:21;;;;;;;;;;;256.00;2252.80;;;;;;5018584;28;19923;-93
2023/01/23 09:21:46;;;;;;;;;;;256.00;2252.80;;;;;;5018074;28;19918;-91
2023/01/23 09:24:12;;;;;;;;;;;256.10;2252.80;;;;;;5012571;28;19913;-91
2023/01/23 09:26:38;;;;;;;;;;;256.20;2252.80;;;;;;5017928;28;19970;-86
2023/01/23 09:29:03;;;;;;;;;;;256.20;2252.80;;;;;;5017778;28;19920;-84
2023/01/23 09:31:29;;;;;;;;;;;256.30;2252.80;;;;;;5016840;28;19905;-81
2023/01/23 09:33:55;;;;;;;;;;;256.30;2252.80;;;;;;5017926;28;19999;-82
2023/01/23 09:36:20;;;;;;;;;;;256.40;2252.80;;;;;;5018346;28;20018;-86
2023/01/23 09:38:49;;;;;;;;;;;256.40;2252.80;;;;;;5011256;28;20373;-88
2023/01/23 09:41:19;;;;;;;;;;;256.40;2252.80;;;;;;5018532;28;20355;-91
2023/01/23 09:43:54;;;;;;;;;;;256.50;2252.80;;;;;;5016190;28;20290;-92
2023/01/23 09:46:19;;;;;;;;;;;256.50;2252.80;;;;;;5015326;28;20278;-85
2023/01/23 09:48:46;;;;;;;;;;;256.50;2252.80;;;;;;5018226;28;19913;-87
2023/01/23 09:51:27;;;;;;;;;;;256.50;2252.80;;;;;;5018410;28;19916;-92
2023/01/23 09:53:57;;;;;;;;;;;256.70;2252.80;;;;;;5027050;28;19913;-85
2023/01/23 09:56:39;;;;;;;;;;;256.60;2252.80;;;;;;5035907;28;20000;-87
2023/01/23 09:59:21;;;;;;;;;;;256.60;2252.80;;;;;;5017390;28;19916;-80
2023/01/23 10:01:46;;;;;;;;;;;256.60;2252.80;;;;;;5035554;28;20006;-84
2023/01/23 10:04:14;;;;;;;;;;;256.60;2252.80;;;;;;5017834;28;19964;-86
2023/01/23 10:07:03;;;;;;;;;;;256.60;2252.80;;;;;;5035027;28;19951;-82
2023/01/23 10:09:40;;;;;;;;;;;256.60;2252.80;;;;;;4943671;29;19962;-89
2023/01/23 10:12:06;;;;;;;;;;;256.60;2252.80;;;;;;4949442;29;19981;-83
2023/01/23 10:14:31;;;;;;;;;;;256.50;2252.80;;;;;;4939050;29;19910;-86
2023/01/23 10:17:03;;;;;;;;;;;256.50;2252.80;;;;;;4938769;29;20009;-80
2023/01/23 10:19:31;;;;;;;;;;;256.50;2252.80;;;;;;4938724;29;20017;-88
2023/01/23 10:22:02;;;;;;;;;;;256.60;2252.80;;;;;;4943041;29;19907;-83
2023/01/23 10:24:31;;;;;;;;;;;256.50;2252.80;;;;;;4954872;29;19964;-90
2023/01/23 10:26:59;;;;;;;;;;;256.50;2252.80;;;;;;4954901;29;19949;-90
2023/01/23 10:29:33;;;;;;;;;;;256.50;2252.80;;;;;;4942228;29;19922;-93
2023/01/23 10:32:05;;;;;;;;;;;256.40;2252.80;;;;;;4942148;29;20376;-85
2023/01/23 10:34:38;;;;;;;;;;;256.40;2252.80;;;;;;4940170;29;19907;-79
2023/01/23 10:37:13;;;;;;;;;;;256.40;2252.80;;;;;;4960143;29;19928;-80
2023/01/23 10:39:43;;;;;;;;;;;256.40;2252.80;;;;;;4972761;29;19963;-84
2023/01/23 10:42:12;;;;;;;;;;;256.40;2252.80;;;;;;4954565;29;19913;-79
2023/01/23 10:44:38;;;;;;;;;;;256.40;2252.80;;;;;;4954920;29;19906;-81
2023/01/23 10:47:11;;;;;;;;;;;256.40;2252.80;;;;;;4997003;28;20012;-80
2023/01/23 10:49:42;;;;;;;;;;;256.40;2252.80;;;;;;5016413;28;19925;-85
2023/01/23 10:52:27;;;;;;;;;;;256.30;2252.80;;;;;;5033794;28;19927;-84
2023/01/23 10:54:53;;;;;;;;;;;256.30;2252.80;;;;;;5031626;28;19905;-79
2023/01/23 10:57:22;;;;;;;;;;;256.40;2252.80;;;;;;5014519;28;19905;-90
2023/01/23 10:59:52;;;;;;;;;;;256.40;2252.80;;;;;;5023549;28;20008;-84
2023/01/23 11:02:26;;;;;;;;;;;256.30;2252.80;;;;;;5027007;28;20328;-92
2023/01/23 11:04:51;;;;;;;;;;;256.20;2252.80;;;;;;5021798;28;19928;-84
2023/01/23 11:07:22;;;;;;;;;;;256.20;2252.80;;;;;;5045269;28;19905;-86
2023/01/23 11:09:49;;;;;;;;;;;256.20;2252.80;;;;;;5012547;28;19913;-89
2023/01/23 11:12:26;;;;;;;;;;;256.20;2252.80;;;;;;5018980;28;19928;-81
2023/01/23 11:15:09;;;;;;;;;;;256.30;2252.80;;;;;;5037029;28;19909;-81
2023/01/23 11:17:35;;;;;;;;;;;256.20;2252.80;;;;;;5023920;28;19905;-80
2023/01/23 11:20:09;;;;;;;;;;;256.20;2252.80;;;;;;5023540;28;20268;-81
2023/01/23 11:22:37;;;;;;;;;;;256.20;2252.80;;;;;;5027147;28;19904;-85
2023/01/23 11:25:38;;;;;;;;;;;256.20;2252.80;;;;;;5049604;28;19909;-82
2023/01/23 11:28:23;;;;;;;;;;;256.20;2252.80;;;;;;4974040;28;20379;-87
2023/01/23 11:31:02;;;;;;;;;;;256.20;2252.80;;;;;;4972285;28;20045;-82
2023/01/23 11:33:33;;;;;;;;;;;256.20;2252.80;;;;;;4980853;28;19910;-82
2023/01/23 11:36:05;;;;;;;;;;;256.20;2252.80;;;;;;4968428;28;19996;-82
2023/01/23 11:38:38;;;;;;;;;;;256.20;2252.80;;;;;;4972824;28;19906;-94
2023/01/23 11:41:03;;;;;;;;;;;256.20;2252.80;;;;;;4970913;28;20363;-89
2023/01/23 11:43:29;;;;;;;;;;;256.20;2252.80;;;;;;4958683;28;19910;-93
2023/01/23 11:46:00;;;;;;;;;;;256.20;2252.80;;;;;;4968356;28;20396;-84
2023/01/23 11:48:45;;;;;;;;;;;256.20;2252.80;;;;;;4961237;28;19915;-92
2023/01/23 11:51:45;;;;;;;;;;;256.20;2252.80;;;;;;4948489;28;19910;-89
2023/01/23 11:54:23;;;;;;;;;;;256.20;2252.80;;;;;;4890330;29;19911;-88
2023/01/23 11:57:18;;;;;;;;;;;256.20;2252.80;;;;;;4898452;29;19963;-88
2023/01/23 11:59:46;;;;;;;;;;;256.30;2252.80;;;;;;4848760;29;19964;-88
2023/01/23 12:02:20;;;;;;;;;;;256.20;2252.80;;;;;;4869972;29;19914;-89
2023/01/23 12:05:06;;;;;;;;;;;256.30;2252.80;;;;;;4880941;29;19943;-88
2023/01/23 12:07:52;;;;;;;;;;;256.30;2252.80;;;;;;4880740;29;19908;-87
2023/01/23 12:10:23;;;;;;;;;;;256.40;2252.80;;;;;;4901373;29;19946;-89
2023/01/23 12:12:51;;;;;;;;;;;256.40;2252.80;;;;;;4887406;29;20404;-88
2023/01/23 12:15:36;;;;;;;;;;;256.40;2252.80;;;;;;4901670;29;20361;-89
2023/01/23 12:18:20;;;;;;;;;;;256.40;2252.80;;;;;;4892517;29;19914;-90
2023/01/23 12:20:51;;;;;;;;;;;256.40;2252.80;;;;;;4900263;29;19915;-88
2023/01/23 12:23:25;;;;;;;;;;;256.30;2252.80;;;;;;4901107;29;19914;-89
2023/01/23 12:25:57;;;;;;;;;;;256.40;2252.80;;;;;;4885059;29;19907;-89
2023/01/23 12:28:41;;;;;;;;;;;256.30;2252.80;;;;;;4893385;29;20494;-88
2023/01/23 12:31:07;;;;;;;;;;;256.20;2252.80;;;;;;4916530;29;19931;-91
2023/01/23 12:33:38;;;;;;;;;;;256.10;2252.80;;;;;;4916447;29;19911;-88
2023/01/23 12:36:23;;;;;;;;;;;256.10;2252.80;;;;;;4929206;28;19950;-89
2023/01/23 12:38:54;;;;;;;;;;;256.00;2252.80;;;;;;4952386;28;19906;-88
2023/01/23 12:41:36;;;;;;;;;;;256.00;2252.80;;;;;;4959913;28;19953;-88
2023/01/23 12:44:19;;;;;;;;;;;256.00;2252.80;;;;;;4955961;28;19945;-87
2023/01/23 12:46:45;;;;;;;;;;;231.30;2252.80;;;;;;4974497;28;19951;-88
2023/01/23 12:49:17;;;;;;;;;;;231.30;2252.80;;;;;;5046503;28;19944;-88
2023/01/23 12:51:44;;;;;;;;;;;231.30;2252.80;;;;;;5020524;28;19964;-86
2023/01/23 12:54:16;;;;;;;;;;;231.30;2252.80;;;;;;5029843;28;20358;-84
2023/01/23 12:56:43;;;;;;;;;;;231.30;2252.80;;;;;;5038002;28;19905;-87
2023/01/23 12:59:15;;;;;;;;;;;231.20;2252.80;;;;;;5035111;28;20011;-87
2023/01/23 13:01:59;;;;;;;;;;;231.30;2252.80;;;;;;5029856;28;19995;-88
2023/01/23 13:04:43;;;;;;;;;;;231.30;2252.80;;;;;;5018069;28;19905;-87
2023/01/23 13:07:15;;;;;;;;;;;231.30;2252.80;;;;;;5023900;28;19905;-87
2023/01/23 13:09:46;;;;;;;;;;;231.30;2252.80;;;;;;5026961;28;20359;-88
2023/01/23 13:12:22;;;;;;;;;;;231.30;2252.80;;;;;;5027545;28;19919;-86
2023/01/23 13:14:51;;;;;;;;;;;231.30;2252.80;;;;;;5034980;28;19905;-84
2023/01/23 13:17:42;;;;;;;;;;;256.00;2252.80;;;;;;5035069;28;19948;-87
2023/01/23 13:23:21;;;;;;;;;;;231.30;2252.80;;;;;;5029748;28;19911;-87
2023/01/23 13:25:47;;;;;;;;;;;231.30;2252.80;;;;;;5015711;28;19912;-88
2023/01/23 13:28:29;;;;;;;;;;;231.30;2252.80;;;;;;5022568;28;19917;-85
2023/01/23 13:31:02;;;;;;;;;;;256.00;2252.80;;;;;;5011043;28;19909;-83
2023/01/23 13:33:51;;;;;;;;;;;256.00;2252.80;;;;;;5026767;28;19910;-83
2023/01/23 13:36:27;;;;;;;;;;;256.00;2252.80;;;;;;4961065;28;19945;-85
2023/01/23 13:38:59;;;;;;;;;;;231.30;2252.80;;;;;;4956277;28;19911;-82
2023/01/23 13:41:27;;;;;;;;;;;231.30;2252.80;;;;;;4958436;28;19957;-86
2023/01/23 13:43:57;;;;;;;;;;;231.30;2252.80;;;;;;4947026;28;19910;-82
2023/01/23 13:46:22;;;;;;;;;;;231.20;2252.80;;;;;;4935735;28;20006;-85
2023/01/23 13:51:38;;;;;;;;;;;231.20;2252.80;;;;;;4964564;28;19925;-84
2023/01/23 13:56:55;;;;;;;;;;;231.10;2252.80;;;;;;4963801;28;19914;-82
2023/01/23 13:59:21;;;;;;;;;;;231.10;2252.80;;;;;;4946017;29;19961;-84
2023/01/23 14:07:49;;;;;;;;;;;231.10;2252.80;;;;;;4956876;28;19969;-80
2023/01/23 14:10:15;;;;;;;;;;;231.20;2252.80;;;;;;4946823;29;20006;-82